createdAt,value
2022-08-12T00:00:44.438Z,35.61
2022-08-12T00:03:34.567Z,35.62
2022-08-12T00:06:23.595Z,36.26
2022-08-12T00:09:13.412Z,35.91
2022-08-12T00:12:02.530Z,35.97
2022-08-12T00:14:52.268Z,36.07
2022-08-12T00:17:40.423Z,36.38
2022-08-12T00:20:30.610Z,36.31
2022-08-12T00:23:26.010Z,36.26
2022-08-12T00:26:23.184Z,36.73
2022-08-12T00:29:13.942Z,36.44
2022-08-12T00:32:05.728Z,36.45
2022-08-12T00:34:55.534Z,36.27
2022-08-12T00:37:45.748Z,36.53
2022-08-12T00:40:36.239Z,36.51
2022-08-12T00:43:12.600Z,35.81
2022-08-12T00:46:03.527Z,36.75
2022-08-12T00:48:35.099Z,36.33
2022-08-12T00:51:07.059Z,37.15
2022-08-12T00:53:39.616Z,36.51
2022-08-12T00:56:11.380Z,36.05
2022-08-12T00:58:51.475Z,36.08
2022-08-12T01:01:24.868Z,37.17
2022-08-12T01:04:17.244Z,36.89
2022-08-12T01:07:06.311Z,36.75
2022-08-12T01:09:57.700Z,36.77
2022-08-12T01:12:27.794Z,36.93
2022-08-12T01:14:58.847Z,37.12
2022-08-12T01:17:30.555Z,36.95
2022-08-12T01:20:05.993Z,36.63
2022-08-12T01:22:42.771Z,36.66
2022-08-12T01:25:19.604Z,37.24
2022-08-12T01:27:50.999Z,38.09
2022-08-12T01:30:21.066Z,37.66
2022-08-12T01:32:50.093Z,37.65
2022-08-12T01:35:22.300Z,37.60
2022-08-12T01:37:58.552Z,38.22
2022-08-12T01:40:37.851Z,37.98
2022-08-12T01:43:10.280Z,37.99
2022-08-12T01:45:53.422Z,37.69
2022-08-12T01:48:35.339Z,38.19
2022-08-12T01:52:04.555Z,37.74
2022-08-12T01:54:09.766Z,37.88
2022-08-12T01:56:51.150Z,37.73
2022-08-12T01:59:50.017Z,38.86
2022-08-12T02:02:24.541Z,38.88
2022-08-12T02:05:33.365Z,39.32
2022-08-12T02:08:37.950Z,38.87
2022-08-12T02:11:18.887Z,40.32
2022-08-12T02:14:07.743Z,40.09
2022-08-12T02:16:57.179Z,40.31
2022-08-12T02:19:28.414Z,40.17
2022-08-12T02:22:18.005Z,41.05
2022-08-12T02:24:51.307Z,41.09
2022-08-12T02:27:22.662Z,41.32
2022-08-12T02:29:55.025Z,40.95
2022-08-12T02:32:25.024Z,41.15
2022-08-12T02:34:53.673Z,40.96
2022-08-12T02:37:23.968Z,40.63
2022-08-12T02:39:56.641Z,40.99
2022-08-12T02:42:25.749Z,40.57
2022-08-12T02:44:56.895Z,40.71
2022-08-12T02:47:58.468Z,41.01
2022-08-12T02:50:14.842Z,42.10
2022-08-12T02:52:44.517Z,42.17
2022-08-12T02:55:33.921Z,42.07
2022-08-12T02:58:12.615Z,42.29
2022-08-12T03:00:45.153Z,43.63
2022-08-12T03:03:14.491Z,43.28
2022-08-12T03:05:59.481Z,42.13
2022-08-12T03:08:33.355Z,43.25
2022-08-12T03:11:14.523Z,42.76
2022-08-12T03:13:58.058Z,42.43
2022-08-12T03:16:33.109Z,42.91
2022-08-12T03:19:01.991Z,43.17
2022-08-12T03:21:52.973Z,42.88
2022-08-12T03:24:24.804Z,44.03
2022-08-12T03:27:00.542Z,42.77
2022-08-12T03:29:31.131Z,42.45
2022-08-12T03:32:05.639Z,42.36
2022-08-12T03:34:35.851Z,43.46
2022-08-12T03:37:21.208Z,43.81
2022-08-12T03:39:50.100Z,42.87
2022-08-12T03:42:30.733Z,43.18
2022-08-12T03:45:51.990Z,43.84
2022-08-12T03:48:41.037Z,44.23
2022-08-12T03:51:29.162Z,43.24
2022-08-12T03:54:16.855Z,43.33
2022-08-12T03:57:04.582Z,44.63
2022-08-12T03:59:52.808Z,44.59
2022-08-12T04:02:21.262Z,45.01
2022-08-12T04:04:51.549Z,44.65
2022-08-12T04:07:19.915Z,44.88
2022-08-12T04:09:48.337Z,43.83
2022-08-12T04:12:36.122Z,43.68
2022-08-12T04:15:05.267Z,44.10
2022-08-12T04:17:34.083Z,45.09
2022-08-12T04:20:02.997Z,44.45
2022-08-12T04:22:31.221Z,44.22
2022-08-12T04:25:02.644Z,44.71
2022-08-12T04:27:32.221Z,44.60
2022-08-12T04:30:17.010Z,44.92
2022-08-12T04:32:54.227Z,45.61
2022-08-12T04:35:24.910Z,45.16
2022-08-12T04:37:58.628Z,45.24
2022-08-12T04:40:33.103Z,44.58
2022-08-12T04:44:00.376Z,43.78
2022-08-12T04:46:07.738Z,44.46
2022-08-12T04:48:36.273Z,44.17
2022-08-12T04:51:08.941Z,43.69
2022-08-12T04:53:37.461Z,43.53
2022-08-12T04:56:25.870Z,42.13
2022-08-12T04:59:15.801Z,41.90
2022-08-12T05:01:59.609Z,42.13
2022-08-12T05:04:52.019Z,42.18
2022-08-12T05:07:53.700Z,41.90
2022-08-12T05:10:36.140Z,41.82
2022-08-12T05:13:39.937Z,41.18
2022-08-12T05:16:39.725Z,40.67
2022-08-12T05:19:22.779Z,40.35
2022-08-12T05:22:14.623Z,40.32
2022-08-12T05:24:54.423Z,39.90
2022-08-12T05:27:58.454Z,39.82
2022-08-12T05:30:46.025Z,39.21
2022-08-12T05:33:17.058Z,39.04
2022-08-12T05:35:47.839Z,38.56
2022-08-12T05:38:38.911Z,38.12
2022-08-12T05:41:20.725Z,37.83
2022-08-12T05:44:17.512Z,38.02
2022-08-12T05:47:02.326Z,37.91
2022-08-12T05:49:56.754Z,37.85
2022-08-12T05:52:36.669Z,37.53
2022-08-12T05:55:20.500Z,37.36
2022-08-12T05:58:14.591Z,36.83
2022-08-12T06:00:47.971Z,37.18
2022-08-12T06:03:42.511Z,37.06
2022-08-12T06:06:17.229Z,36.03
2022-08-12T06:09:11.609Z,36.20
2022-08-12T06:15:07.628Z,35.45
2022-08-12T06:18:11.449Z,35.42
2022-08-12T06:20:57.771Z,35.27
2022-08-12T06:23:51.082Z,34.71
2022-08-12T06:26:30.795Z,34.91
2022-08-12T06:30:07.003Z,35.16
2022-08-12T06:32:08.450Z,34.90
2022-08-12T06:35:25.358Z,34.44
2022-08-12T06:37:51.537Z,34.35
2022-08-12T06:41:16.336Z,33.97
2022-08-12T06:44:05.828Z,33.86
2022-08-12T06:46:38.871Z,33.85
2022-08-12T06:49:10.432Z,33.62
2022-08-12T06:51:39.841Z,33.99
2022-08-12T06:54:35.528Z,33.89
2022-08-12T06:58:08.293Z,33.48
2022-08-12T06:59:44.154Z,33.45
2022-08-12T07:02:51.303Z,33.15
2022-08-12T07:05:32.369Z,33.38
2022-08-12T07:08:27.553Z,33.19
2022-08-12T07:11:03.319Z,32.98
2022-08-12T07:14:02.414Z,33.31
2022-08-12T07:16:49.849Z,33.55
2022-08-12T07:19:19.225Z,32.62
2022-08-12T07:22:00.119Z,32.36
2022-08-12T07:24:33.210Z,32.31
2022-08-12T07:27:01.499Z,31.85
2022-08-12T07:30:03.734Z,31.63
2022-08-12T07:32:18.483Z,31.68
2022-08-12T07:34:47.654Z,31.93
2022-08-12T07:37:17.817Z,31.61
2022-08-12T07:39:49.974Z,31.51
2022-08-12T07:42:19.156Z,31.27
2022-08-12T07:44:51.663Z,30.93
2022-08-12T07:47:20.879Z,30.88
2022-08-12T07:50:04.962Z,30.82
2022-08-12T07:52:36.385Z,30.80
2022-08-12T07:55:06.973Z,30.83
2022-08-12T07:57:53.409Z,30.69
2022-08-12T08:00:27.648Z,30.38
2022-08-12T08:03:03.746Z,30.56
2022-08-12T08:05:39.319Z,30.51
2022-08-12T08:08:19.779Z,30.29
2022-08-12T08:10:48.960Z,29.95
2022-08-12T08:13:18.183Z,30.04
2022-08-12T08:16:02.338Z,29.58
2022-08-12T08:18:33.270Z,29.46
2022-08-12T08:21:01.599Z,29.29
2022-08-12T08:23:56.185Z,28.92
2022-08-12T08:26:27.265Z,28.89
2022-08-12T08:28:55.661Z,29.76
2022-08-12T08:31:23.443Z,29.11
2022-08-12T08:34:33.426Z,28.80
2022-08-12T08:37:07.701Z,28.61
2022-08-12T08:39:39.723Z,28.82
2022-08-12T08:42:27.207Z,28.71
2022-08-12T08:44:58.914Z,28.94
2022-08-12T08:47:27.160Z,28.56
2022-08-12T08:50:01.126Z,27.75
2022-08-12T08:52:39.684Z,27.36
2022-08-12T08:55:10.990Z,27.22
2022-08-12T08:57:44.181Z,27.59
2022-08-12T09:00:17.767Z,27.24
2022-08-12T09:02:49.039Z,27.18
2022-08-12T09:06:01.438Z,27.08
2022-08-12T09:08:26.724Z,26.16
2022-08-12T09:12:07.645Z,26.42
2022-08-12T09:14:18.631Z,26.36
2022-08-12T09:19:38.612Z,26.25
2022-08-12T09:22:08.797Z,26.24
2022-08-12T09:24:37.013Z,25.64
2022-08-12T09:27:08.319Z,25.89
2022-08-12T09:30:10.185Z,26.07
2022-08-12T09:33:04.733Z,25.66
2022-08-12T09:35:44.456Z,25.08
2022-08-12T09:38:35.533Z,24.86
2022-08-12T09:42:09.512Z,25.24
2022-08-12T09:44:39.492Z,24.72
2022-08-12T09:47:10.707Z,25.11
2022-08-12T09:49:58.843Z,24.63
2022-08-12T09:52:36.883Z,24.43
2022-08-12T09:55:57.299Z,24.10
2022-08-12T09:58:57.791Z,24.07
2022-08-12T10:01:06.546Z,24.58
2022-08-12T10:03:55.627Z,24.14
2022-08-12T10:06:54.273Z,23.78
2022-08-12T10:09:28.408Z,23.44
2022-08-12T10:12:40.347Z,23.16
2022-08-12T10:16:03.172Z,23.09
2022-08-12T10:18:19.658Z,24.09
2022-08-12T10:21:00.230Z,23.25
2022-08-12T10:23:58.640Z,23.03
2022-08-12T10:27:05.693Z,23.02
2022-08-12T10:30:37.842Z,22.72
2022-08-12T10:32:47.154Z,22.17
2022-08-12T10:35:37.947Z,22.58
2022-08-12T10:38:37.600Z,22.34
2022-08-12T10:41:19.148Z,22.50
2022-08-12T10:44:22.474Z,22.81
2022-08-12T10:47:01.891Z,22.35
2022-08-12T10:50:03.187Z,22.00
2022-08-12T10:52:41.576Z,22.14
2022-08-12T10:55:23.908Z,21.99
2022-08-12T10:58:27.726Z,22.16
2022-08-12T11:01:26.170Z,22.21
2022-08-12T11:04:27.052Z,21.49
2022-08-12T11:07:06.817Z,21.13
2022-08-12T11:09:51.295Z,20.85
2022-08-12T11:12:55.586Z,21.01
2022-08-12T11:14:59.362Z,20.87
2022-08-12T11:17:51.893Z,20.80
2022-08-12T11:20:32.617Z,20.67
2022-08-12T11:23:37.158Z,20.97
2022-08-12T11:34:05.906Z,22.07
2022-08-12T11:43:20.097Z,21.01
2022-08-12T11:45:53.233Z,20.85
2022-08-12T11:48:52.379Z,20.09
2022-08-12T11:51:26.089Z,19.16
2022-08-12T11:54:10.495Z,19.50
2022-08-12T11:57:00.272Z,19.94
2022-08-12T12:02:02.997Z,20.06
2022-08-12T12:02:26.755Z,20.07
2022-08-12T12:05:09.760Z,20.56
2022-08-12T12:08:38.612Z,20.48
2022-08-12T12:10:44.168Z,20.24
2022-08-12T12:14:08.401Z,20.42
2022-08-12T12:16:41.995Z,20.61
2022-08-12T12:19:22.418Z,20.20
2022-08-12T12:22:30.836Z,20.63
2022-08-12T12:25:14.039Z,20.18
2022-08-12T12:28:06.590Z,20.33
2022-08-12T12:30:54.895Z,20.50
2022-08-12T12:33:57.214Z,20.76
2022-08-12T12:36:29.942Z,21.11
2022-08-12T12:39:18.523Z,20.85
2022-08-12T12:42:53.591Z,20.89
2022-08-12T12:44:57.312Z,20.53
2022-08-12T12:47:30.027Z,20.64
2022-08-12T12:50:35.403Z,20.35
2022-08-12T12:53:09.869Z,20.26
2022-08-12T12:56:02.092Z,20.18
2022-08-12T12:58:30.439Z,19.48
2022-08-12T13:01:04.932Z,19.31
2022-08-12T13:03:56.506Z,19.34
2022-08-12T13:06:34.314Z,18.72
2022-08-12T13:09:04.355Z,18.73
2022-08-12T13:11:41.561Z,18.25
2022-08-12T13:14:29.483Z,17.75
2022-08-12T13:17:02.910Z,17.10
2022-08-12T13:19:37.829Z,17.43
2022-08-12T13:22:19.245Z,17.29
2022-08-12T13:25:04.312Z,16.81
2022-08-12T13:27:48.583Z,17.86
2022-08-12T13:30:33.738Z,18.13
2022-08-12T13:33:17.772Z,18.66
2022-08-12T13:36:05.957Z,18.62
2022-08-12T13:38:38.976Z,18.97
2022-08-12T13:41:36.147Z,19.35
2022-08-12T13:44:18.139Z,20.24
2022-08-12T13:47:02.130Z,20.16
2022-08-12T13:49:54.958Z,20.13
2022-08-12T13:52:31.321Z,20.23
2022-08-12T13:55:23.062Z,20.38
2022-08-12T13:58:05.379Z,20.25
2022-08-12T14:01:11.899Z,20.46
2022-08-12T14:03:54.833Z,20.66
2022-08-12T14:06:44.918Z,20.33
2022-08-12T14:09:29.537Z,20.40
2022-08-12T14:12:24.234Z,20.03
2022-08-12T14:15:03.540Z,19.59
2022-08-12T14:18:13.132Z,18.88
2022-08-12T14:21:00.852Z,19.28
2022-08-12T14:24:05.745Z,18.38
2022-08-12T14:26:34.133Z,18.69
2022-08-12T14:29:21.681Z,18.54
2022-08-12T14:32:16.866Z,18.75
2022-08-12T14:35:10.255Z,18.84
2022-08-12T14:37:59.124Z,18.43
2022-08-12T14:40:41.116Z,18.29
2022-08-12T14:43:25.789Z,18.53
2022-08-12T14:46:29.904Z,17.97
2022-08-12T14:49:27.552Z,17.77
2022-08-12T14:52:38.905Z,17.97
2022-08-12T14:58:05.091Z,17.87
2022-08-12T15:01:21.734Z,17.62
2022-08-12T15:04:02.476Z,18.25
2022-08-12T15:06:52.553Z,18.02
2022-08-12T15:09:29.598Z,18.10
2022-08-12T15:12:14.826Z,17.88
2022-08-12T15:14:46.559Z,18.21
2022-08-12T15:17:38.102Z,18.45
2022-08-12T15:20:37.802Z,17.73
2022-08-12T15:23:18.031Z,17.86
2022-08-12T15:26:21.176Z,17.91
2022-08-12T15:28:59.955Z,18.07
2022-08-12T15:32:02.120Z,17.80
2022-08-12T15:34:38.956Z,18.23
2022-08-12T15:38:09.387Z,18.50
2022-08-12T15:40:15.997Z,18.57
2022-08-12T15:43:12.488Z,18.96
2022-08-12T15:46:01.249Z,18.80
2022-08-12T15:48:32.888Z,18.60
2022-08-12T15:51:59.537Z,19.16
2022-08-12T15:54:44.849Z,19.28
2022-08-12T15:57:43.121Z,19.62
2022-08-12T16:00:38.291Z,19.54
2022-08-12T16:04:00.504Z,19.49
2022-08-12T16:07:00.571Z,19.27
2022-08-12T16:10:05.586Z,19.23
2022-08-12T16:12:39.728Z,19.12
2022-08-12T16:16:01.605Z,19.55
2022-08-12T16:18:38.468Z,19.38
2022-08-12T16:21:51.291Z,20.22
2022-08-12T16:24:26.312Z,21.21
2022-08-12T16:27:17.850Z,22.62
2022-08-12T16:30:06.067Z,22.66
2022-08-12T16:33:17.919Z,22.56
2022-08-12T16:36:06.370Z,23.09
2022-08-12T16:39:12.924Z,23.05
2022-08-12T16:42:00.881Z,22.98
2022-08-12T16:44:50.309Z,23.28
2022-08-12T16:47:19.664Z,23.66
2022-08-12T16:50:10.939Z,23.66
2022-08-12T16:52:47.944Z,23.58
2022-08-12T16:56:02.037Z,23.70
2022-08-12T16:58:52.086Z,23.61
2022-08-12T17:01:39.650Z,23.53
2022-08-12T17:04:20.903Z,23.53
2022-08-12T17:07:17.145Z,23.66
2022-08-12T17:09:50.541Z,23.89
2022-08-12T17:12:58.673Z,23.59
2022-08-12T17:15:56.912Z,23.62
2022-08-12T17:18:57.742Z,24.27
2022-08-12T17:21:59.338Z,23.72
2022-08-12T17:24:54.427Z,23.89
2022-08-12T17:27:31.062Z,23.60
2022-08-12T17:30:16.049Z,23.68
2022-08-12T17:33:06.973Z,23.65
2022-08-12T17:36:11.922Z,23.86
2022-08-12T17:38:50.789Z,23.94
2022-08-12T17:41:57.083Z,24.06
2022-08-12T17:44:12.237Z,24.22
2022-08-12T17:46:57.377Z,24.19
2022-08-12T17:50:03.042Z,23.97
2022-08-12T17:53:03.142Z,23.71
2022-08-12T17:55:50.811Z,23.85
2022-08-12T17:58:59.190Z,24.35
2022-08-12T18:01:47.021Z,24.43
2022-08-12T18:04:35.971Z,24.42
2022-08-12T18:07:06.224Z,24.50
2022-08-12T18:10:42.975Z,24.12
2022-08-12T18:13:40.830Z,24.23
2022-08-12T18:16:34.693Z,24.26
2022-08-12T18:19:13.189Z,24.37
2022-08-12T18:22:03.170Z,24.88
2022-08-12T18:24:31.385Z,25.28
2022-08-12T18:27:28.023Z,25.43
2022-08-12T18:30:08.913Z,25.17
2022-08-12T18:33:19.812Z,24.90
2022-08-12T18:35:53.772Z,25.25
2022-08-12T18:38:51.097Z,25.59
2022-08-12T18:41:34.264Z,25.80
2022-08-12T18:44:41.711Z,26.40
2022-08-12T18:47:13.448Z,26.49
2022-08-12T18:50:00.829Z,27.09
2022-08-12T18:52:33.880Z,26.61
2022-08-12T18:55:08.277Z,26.75
2022-08-12T18:58:07.507Z,26.81
2022-08-12T19:00:51.731Z,26.57
2022-08-12T19:03:23.503Z,27.50
2022-08-12T19:06:09.489Z,28.65
2022-08-12T19:08:57.572Z,28.26
2022-08-12T19:11:50.071Z,27.67
2022-08-12T19:14:40.400Z,27.29
2022-08-12T19:17:47.450Z,28.16
2022-08-12T19:20:21.679Z,27.85
2022-08-12T19:23:02.620Z,27.91
2022-08-12T19:26:00.572Z,28.46
2022-08-12T19:28:57.919Z,29.73
2022-08-12T19:31:58.973Z,29.52
2022-08-12T19:36:06.839Z,30.72
2022-08-12T19:38:06.462Z,29.87
2022-08-12T19:40:48.216Z,29.94
2022-08-12T19:43:21.070Z,29.64
2022-08-12T19:46:11.991Z,31.37
2022-08-12T19:48:44.816Z,30.93
2022-08-12T19:51:38.766Z,31.12
2022-08-12T19:54:27.152Z,31.04
2022-08-12T19:57:02.609Z,30.66
2022-08-12T19:59:43.538Z,31.48
2022-08-12T20:02:34.607Z,31.91
2022-08-12T20:06:05.723Z,31.97
2022-08-12T20:08:34.021Z,31.80
2022-08-12T20:12:13.517Z,32.23
2022-08-12T20:14:27.677Z,31.80
2022-08-12T20:17:05.515Z,32.03
2022-08-12T20:20:01.662Z,32.39
2022-08-12T20:22:45.845Z,32.75
2022-08-12T20:25:52.967Z,32.75
2022-08-12T20:28:40.687Z,32.72
2022-08-12T20:31:12.263Z,32.75
2022-08-12T20:33:56.514Z,33.04
2022-08-12T20:36:44.365Z,33.11
2022-08-12T20:39:52.867Z,33.48
2022-08-12T20:42:24.056Z,33.54
2022-08-12T20:45:40.006Z,33.70
2022-08-12T20:48:24.228Z,33.37
2022-08-12T20:51:19.184Z,33.67
2022-08-12T20:53:58.093Z,34.11
2022-08-12T20:56:34.763Z,34.57
2022-08-12T20:59:21.799Z,34.00
2022-08-12T21:02:30.774Z,34.32
2022-08-12T21:05:21.912Z,34.42
2022-08-12T21:07:52.386Z,34.30
2022-08-12T21:10:38.631Z,34.40
2022-08-12T21:13:27.102Z,34.07
2022-08-12T21:15:59.739Z,34.25
2022-08-12T21:18:50.739Z,33.80
2022-08-12T21:21:23.897Z,34.76
2022-08-12T21:24:32.370Z,34.31
2022-08-12T21:27:17.980Z,34.45
2022-08-12T21:30:06.849Z,33.97
2022-08-12T21:32:55.089Z,34.18
2022-08-12T21:35:26.586Z,34.11
2022-08-12T21:38:14.801Z,35.10
2022-08-12T21:41:23.572Z,34.65
2022-08-12T21:44:00.905Z,33.97
2022-08-12T21:46:53.388Z,34.60
2022-08-12T21:49:54.137Z,35.07
2022-08-12T21:52:28.240Z,34.78
2022-08-12T21:55:18.035Z,34.73
2022-08-12T21:58:11.763Z,34.72
2022-08-12T22:00:49.193Z,34.64
2022-08-12T22:04:16.490Z,34.67
2022-08-12T22:07:06.939Z,34.91
2022-08-12T22:10:00.192Z,34.65
2022-08-12T22:12:37.529Z,34.50
2022-08-12T22:15:31.180Z,34.57
2022-08-12T22:18:09.450Z,34.23
2022-08-12T22:21:03.673Z,33.70
2022-08-12T22:23:52.336Z,34.07
2022-08-12T22:26:43.253Z,33.77
2022-08-12T22:29:31.952Z,34.05
2022-08-12T22:32:26.291Z,33.97
2022-08-12T22:35:55.501Z,34.96
2022-08-12T22:38:35.483Z,35.68
2022-08-12T22:41:44.202Z,36.28
2022-08-12T22:44:55.263Z,36.69
2022-08-12T22:47:54.355Z,36.71
2022-08-12T22:50:46.543Z,37.55
2022-08-12T22:53:36.716Z,37.13
2022-08-12T22:56:47.112Z,37.91
2022-08-12T22:59:55.151Z,37.65
2022-08-12T23:02:31.179Z,38.43
2022-08-12T23:05:01.042Z,38.30
2022-08-12T23:07:59.936Z,37.91
2022-08-12T23:10:43.347Z,38.08
2022-08-12T23:13:57.381Z,37.96
2022-08-12T23:16:41.355Z,38.26
2022-08-12T23:19:38.407Z,37.89
2022-08-12T23:22:36.326Z,37.71
2022-08-12T23:25:19.131Z,36.97
2022-08-12T23:28:29.537Z,36.41
2022-08-12T23:31:30.442Z,35.43
2022-08-12T23:34:18.485Z,36.74
2022-08-12T23:37:08.602Z,37.29
2022-08-12T23:40:14.753Z,37.09
2022-08-12T23:42:51.159Z,36.66
2022-08-12T23:45:41.170Z,36.20
2022-08-12T23:48:57.294Z,35.82
2022-08-12T23:51:46.160Z,35.52
2022-08-12T23:54:58.522Z,35.32
2022-08-12T23:58:17.878Z,34.60
